Time;durP1;ratioP1;P1;durP2;ratioP2;P2;SDS_P1;SDS_P2;PMS_P1;PMS_P2;Temp;Humidity;BMP_temperature;BMP_pressure;BME280_temperature;BME280_humidity;BME280_pressure;Samples;Min_cycle;Max_cycle;Signal;HPM_P1;HPM_P2
2023/09/05 00:02:17;;;;;;;7.23;6.63;;;18.30;99.90;;;;;;4997960;28;20201;-76
2023/09/05 00:04:46;;;;;;;6.77;6.17;;;18.20;99.90;;;;;;4994304;28;20194;-78
2023/09/05 00:07:13;;;;;;;7.73;7.03;;;18.20;99.90;;;;;;4997577;28;20234;-76
2023/09/05 00:09:40;;;;;;;6.60;6.10;;;18.20;99.90;;;;;;4993958;28;20267;-77
2023/09/05 00:12:09;;;;;;;6.60;6.10;;;18.10;99.90;;;;;;4992816;28;20193;-77
2023/09/05 00:14:37;;;;;;;6.80;6.10;;;18.10;99.90;;;;;;4993541;28;20220;-77
2023/09/05 00:17:04;;;;;;;6.70;6.20;;;18.10;99.90;;;;;;4994623;28;20198;-77
2023/09/05 00:19:31;;;;;;;6.93;6.43;;;18.10;99.90;;;;;;4997902;28;20238;-77
2023/09/05 00:21:58;;;;;;;6.70;6.10;;;18.00;99.90;;;;;;4993049;28;20203;-76
2023/09/05 00:24:30;;;;;;;6.63;6.13;;;17.90;99.90;;;;;;4998229;28;20212;-76
2023/09/05 00:26:57;;;;;;;7.77;7.10;;;17.80;99.90;;;;;;4995809;28;20256;-77
2023/09/05 00:29:27;;;;;;;7.40;6.80;;;17.70;99.90;;;;;;4993001;28;20222;-78
2023/09/05 00:31:58;;;;;;;7.13;6.63;;;17.70;99.90;;;;;;4994737;28;20199;-79
2023/09/05 00:34:26;;;;;;;7.60;7.00;;;17.70;99.90;;;;;;4996951;28;20209;-77
2023/09/05 00:36:53;;;;;;;7.20;6.60;;;17.70;99.90;;;;;;4995524;28;20196;-78
2023/09/05 00:39:20;;;;;;;7.33;6.73;;;17.60;99.90;;;;;;4988848;28;20245;-77
2023/09/05 00:41:47;;;;;;;7.17;6.40;;;17.50;99.90;;;;;;4989898;28;20730;-77
2023/09/05 00:44:14;;;;;;;7.43;6.83;;;17.40;99.90;;;;;;4994070;28;20206;-77
2023/09/05 00:46:45;;;;;;;7.53;6.93;;;17.30;99.90;;;;;;4997514;28;20285;-77
2023/09/05 00:49:15;;;;;;;7.33;6.80;;;17.30;99.90;;;;;;4994756;28;20213;-77
2023/09/05 00:51:45;;;;;;;7.60;6.90;;;17.20;99.90;;;;;;4993894;28;20211;-78
2023/09/05 00:54:13;;;;;;;7.73;7.03;;;17.10;99.90;;;;;;4995087;28;20203;-77
2023/09/05 00:56:40;;;;;;;7.70;7.10;;;17.10;99.90;;;;;;5027005;28;20214;-78
2023/09/05 00:59:07;;;;;;;7.30;6.70;;;17.00;99.90;;;;;;4992801;28;20274;-76
2023/09/05 01:01:34;;;;;;;7.87;7.20;;;16.90;99.90;;;;;;4991581;28;20202;-78
2023/09/05 01:04:02;;;;;;;7.57;6.97;;;16.90;99.90;;;;;;4995277;28;20252;-78
2023/09/05 01:06:39;;;;;;;7.13;6.60;;;16.90;99.90;;;;;;4991895;28;20196;-77
2023/09/05 01:09:19;;;;;;;7.50;6.90;;;16.90;99.90;;;;;;4990746;28;20308;-77
2023/09/05 01:11:46;;;;;;;8.17;7.37;;;16.80;99.90;;;;;;4993935;28;20202;-76
2023/09/05 01:14:14;;;;;;;7.30;6.70;;;16.70;99.90;;;;;;4995883;28;20200;-78
2023/09/05 01:16:43;;;;;;;7.70;7.10;;;16.70;99.90;;;;;;4991206;28;20211;-77
2023/09/05 01:19:14;;;;;;;8.23;7.53;;;16.70;99.90;;;;;;4995125;28;20698;-76
2023/09/05 01:21:52;;;;;;;8.23;7.53;;;16.60;99.90;;;;;;4992250;28;20201;-77
2023/09/05 01:24:21;;;;;;;7.70;7.10;;;16.60;99.90;;;;;;4991338;28;20197;-76
2023/09/05 01:26:49;;;;;;;8.27;7.53;;;16.50;99.90;;;;;;4991204;28;20205;-76
2023/09/05 01:29:18;;;;;;;8.67;7.87;;;16.50;99.90;;;;;;4992676;28;20284;-77
2023/09/05 01:31:45;;;;;;;7.20;6.60;;;16.50;99.90;;;;;;4999000;28;20747;-77
2023/09/05 01:34:12;;;;;;;7.83;7.13;;;16.50;99.90;;;;;;4993059;28;20201;-77
2023/09/05 01:36:39;;;;;;;7.27;6.57;;;16.40;99.90;;;;;;4995579;28;20291;-76
2023/09/05 01:39:06;;;;;;;7.80;7.10;;;16.40;99.90;;;;;;4993345;28;20240;-76
2023/09/05 01:41:34;;;;;;;7.13;6.63;;;16.30;99.90;;;;;;4990494;28;20201;-78
2023/09/05 01:44:01;;;;;;;7.70;7.00;;;16.30;99.90;;;;;;4995412;28;20732;-78
2023/09/05 01:46:27;;;;;;;7.37;6.77;;;16.30;99.90;;;;;;4987196;28;20201;-77
2023/09/05 01:48:54;;;;;;;7.57;6.97;;;16.30;99.90;;;;;;4997076;28;20217;-78
2023/09/05 01:51:21;;;;;;;7.70;7.10;;;16.20;99.90;;;;;;4993219;28;20759;-77
2023/09/05 01:53:48;;;;;;;8.90;8.30;;;16.10;99.90;;;;;;4996975;28;20202;-77
2023/09/05 01:56:15;;;;;;;7.63;7.03;;;16.10;99.90;;;;;;4997222;28;20201;-77
2023/09/05 01:58:43;;;;;;;8.03;7.43;;;16.00;99.90;;;;;;4996552;28;20985;-77
2023/09/05 02:01:09;;;;;;;8.20;7.50;;;16.00;99.90;;;;;;4994423;28;20228;-76
2023/09/05 02:03:36;;;;;;;7.83;7.13;;;16.00;99.90;;;;;;4995255;28;20228;-76
2023/09/05 02:06:03;;;;;;;7.87;7.17;;;16.00;99.90;;;;;;4999667;28;20204;-76
2023/09/05 02:08:30;;;;;;;8.00;7.37;;;16.00;99.90;;;;;;4995729;28;20236;-78
2023/09/05 02:10:57;;;;;;;8.63;7.93;;;15.90;99.90;;;;;;5004769;28;20210;-77
2023/09/05 02:13:24;;;;;;;8.40;7.77;;;15.90;99.90;;;;;;4989742;28;20210;-76
2023/09/05 02:15:52;;;;;;;7.87;7.20;;;15.80;99.90;;;;;;4994621;28;20903;-78
2023/09/05 02:18:19;;;;;;;7.90;7.20;;;15.80;99.90;;;;;;4999859;28;20223;-77
2023/09/05 02:20:46;;;;;;;7.60;7.00;;;15.80;99.90;;;;;;4996341;28;20712;-77
2023/09/05 02:23:13;;;;;;;7.87;7.27;;;15.70;99.90;;;;;;4999363;28;20227;-78
2023/09/05 02:25:39;;;;;;;8.70;7.90;;;15.80;99.90;;;;;;5001642;28;20206;-76
2023/09/05 02:28:06;;;;;;;8.87;8.07;;;15.80;99.90;;;;;;4998787;28;20205;-78
2023/09/05 02:30:39;;;;;;;9.57;8.67;;;15.70;99.90;;;;;;4999895;28;20848;-77
2023/09/05 02:33:08;;;;;;;9.10;8.13;;;15.70;99.90;;;;;;4996972;28;20731;-77
2023/09/05 02:35:35;;;;;;;7.13;6.50;;;15.60;99.90;;;;;;4996030;28;20236;-78
2023/09/05 02:38:02;;;;;;;7.77;7.17;;;15.50;99.90;;;;;;4996157;28;20209;-76
2023/09/05 02:40:28;;;;;;;8.93;8.23;;;15.50;99.90;;;;;;4996333;28;20225;-76
2023/09/05 02:42:56;;;;;;;8.87;8.17;;;15.50;99.90;;;;;;4996112;28;20249;-76
2023/09/05 02:45:23;;;;;;;5.20;4.70;;;15.50;99.90;;;;;;5002310;28;20215;-78
2023/09/05 02:47:49;;;;;;;6.57;6.07;;;15.50;99.90;;;;;;4997116;28;20675;-76
2023/09/05 02:50:18;;;;;;;5.10;4.33;;;15.50;99.90;;;;;;4998380;28;20608;-77
2023/09/05 02:52:45;;;;;;;4.67;4.27;;;15.50;99.90;;;;;;4987519;28;20200;-76
2023/09/05 02:55:11;;;;;;;5.43;4.77;;;15.40;99.90;;;;;;4990969;28;20258;-77
2023/09/05 02:57:38;;;;;;;5.20;4.77;;;15.40;99.90;;;;;;4981514;28;20205;-77
2023/09/05 03:00:07;;;;;;;6.87;6.37;;;15.30;99.90;;;;;;4995091;28;20878;-78
2023/09/05 03:02:34;;;;;;;7.30;6.70;;;15.30;99.90;;;;;;4993490;28;20245;-77
2023/09/05 03:05:00;;;;;;;8.33;7.47;;;15.30;99.90;;;;;;4995574;28;20258;-77
2023/09/05 03:07:29;;;;;;;7.13;6.63;;;15.20;99.90;;;;;;4997805;28;20207;-77
2023/09/05 03:09:55;;;;;;;7.23;6.70;;;15.20;99.90;;;;;;4996049;28;20234;-77
2023/09/05 03:12:24;;;;;;;7.63;7.07;;;15.30;99.90;;;;;;4992744;28;20217;-77
2023/09/05 03:14:51;;;;;;;7.30;6.70;;;15.20;99.90;;;;;;4986936;28;20206;-77
2023/09/05 03:17:18;;;;;;;7.50;6.90;;;15.30;99.90;;;;;;4995252;28;20194;-76
2023/09/05 03:19:45;;;;;;;8.00;7.40;;;15.20;99.90;;;;;;4990179;28;20652;-78
2023/09/05 03:22:12;;;;;;;7.70;7.20;;;15.20;99.90;;;;;;4996878;28;20248;-77
2023/09/05 03:24:40;;;;;;;7.90;7.20;;;15.20;99.90;;;;;;4994718;28;20209;-78
2023/09/05 03:27:07;;;;;;;7.37;6.70;;;15.10;99.90;;;;;;4992524;28;20567;-77
2023/09/05 03:29:34;;;;;;;7.13;6.60;;;15.10;99.90;;;;;;4992491;28;20228;-75
2023/09/05 03:32:01;;;;;;;7.27;6.77;;;15.10;99.90;;;;;;4987279;28;20216;-75
2023/09/05 03:34:28;;;;;;;7.63;7.10;;;15.10;99.90;;;;;;4991517;28;20215;-78
2023/09/05 03:36:55;;;;;;;7.17;6.67;;;15.20;99.90;;;;;;4985596;28;20213;-75
2023/09/05 03:39:21;;;;;;;8.00;7.40;;;15.20;99.90;;;;;;4994479;28;20224;-77
2023/09/05 03:41:50;;;;;;;8.10;7.50;;;15.10;99.90;;;;;;4991648;28;20210;-75
2023/09/05 03:44:17;;;;;;;8.30;7.60;;;15.10;99.90;;;;;;4987783;28;20195;-75
2023/09/05 03:46:44;;;;;;;7.77;7.17;;;15.10;99.90;;;;;;4988041;28;20607;-75
2023/09/05 03:49:12;;;;;;;7.80;7.20;;;15.10;99.90;;;;;;4985810;28;20222;-75
2023/09/05 03:51:38;;;;;;;7.27;6.70;;;15.00;99.90;;;;;;4989512;28;20211;-75
2023/09/05 03:54:05;;;;;;;8.40;7.73;;;15.00;99.90;;;;;;4987680;28;20737;-75
2023/09/05 03:56:33;;;;;;;7.40;6.83;;;15.00;99.90;;;;;;4978223;28;20209;-75
2023/09/05 03:59:01;;;;;;;7.97;7.30;;;15.00;99.90;;;;;;5007950;28;20715;-75
2023/09/05 04:01:29;;;;;;;8.13;7.47;;;14.90;99.90;;;;;;4989844;28;20217;-75
2023/09/05 04:03:56;;;;;;;8.10;7.40;;;14.90;99.90;;;;;;4993705;28;20203;-75
2023/09/05 04:06:24;;;;;;;8.27;7.67;;;14.90;99.90;;;;;;4991122;28;20198;-75
2023/09/05 04:08:51;;;;;;;7.87;7.27;;;14.90;99.90;;;;;;5016208;23;20474;-79
2023/09/05 04:11:19;;;;;;;8.07;7.30;;;15.00;99.90;;;;;;5028461;28;20669;-79
2023/09/05 04:13:45;;;;;;;7.93;7.23;;;15.00;99.90;;;;;;5029587;28;20267;-79
2023/09/05 04:16:14;;;;;;;8.17;7.47;;;14.90;99.90;;;;;;5026796;28;20666;-79
2023/09/05 04:18:40;;;;;;;7.50;6.90;;;14.90;99.90;;;;;;5024297;28;20267;-78
2023/09/05 04:21:08;;;;;;;8.23;7.63;;;14.90;99.90;;;;;;5016596;28;20212;-80
2023/09/05 04:23:34;;;;;;;7.30;6.80;;;15.00;99.90;;;;;;5026466;28;20664;-81
2023/09/05 04:26:02;;;;;;;7.80;7.20;;;14.90;99.90;;;;;;5033547;28;20253;-81
2023/09/05 04:28:30;;;;;;;8.67;8.00;;;15.00;99.90;;;;;;5029608;28;20197;-81
2023/09/05 04:31:02;;;;;;;7.67;7.07;;;15.00;99.90;;;;;;5027235;28;20196;-81
2023/09/05 04:33:32;;;;;;;7.60;7.00;;;14.90;99.90;;;;;;5020969;28;20670;-81
2023/09/05 04:35:59;;;;;;;8.07;7.40;;;15.00;99.90;;;;;;5018138;28;20193;-79
2023/09/05 04:38:27;;;;;;;7.93;7.10;;;15.00;99.90;;;;;;5016888;28;20290;-80
2023/09/05 04:40:54;;;;;;;7.37;6.87;;;15.00;99.90;;;;;;5014546;28;20622;-79
2023/09/05 04:43:21;;;;;;;7.73;7.13;;;15.00;99.90;;;;;;5019260;28;20205;-79
2023/09/05 04:45:53;;;;;;;8.17;7.50;;;15.00;99.90;;;;;;5019883;28;20622;-80
2023/09/05 04:48:20;;;;;;;7.93;7.33;;;15.00;99.90;;;;;;5021508;28;20296;-80
2023/09/05 04:50:48;;;;;;;7.83;7.33;;;15.00;99.90;;;;;;5024972;28;20225;-81
2023/09/05 04:53:15;;;;;;;8.47;7.77;;;15.00;99.90;;;;;;5024280;28;20192;-80
2023/09/05 04:55:43;;;;;;;8.30;7.60;;;14.90;99.90;;;;;;5023322;28;20677;-80
2023/09/05 04:58:11;;;;;;;8.47;7.87;;;14.90;99.90;;;;;;5031918;28;20202;-79
2023/09/05 05:00:38;;;;;;;7.90;7.30;;;15.00;99.90;;;;;;5019050;28;20751;-79
2023/09/05 05:03:05;;;;;;;7.43;6.83;;;15.10;99.90;;;;;;5021180;28;20704;-79
2023/09/05 05:05:32;;;;;;;7.50;7.00;;;15.10;99.90;;;;;;5031215;28;20267;-79
2023/09/05 05:08:00;;;;;;;7.83;7.23;;;15.10;99.90;;;;;;5023264;28;20203;-79
2023/09/05 05:10:27;;;;;;;8.27;7.60;;;15.10;99.90;;;;;;5019319;28;20214;-79
2023/09/05 05:12:54;;;;;;;7.70;7.10;;;15.10;99.90;;;;;;5027600;28;20213;-79
2023/09/05 05:15:21;;;;;;;8.37;7.67;;;15.10;99.90;;;;;;5021240;28;20206;-80
2023/09/05 05:17:47;;;;;;;8.00;7.40;;;15.10;99.90;;;;;;5017362;28;20269;-79
2023/09/05 05:20:14;;;;;;;8.50;7.90;;;15.10;99.90;;;;;;5021292;28;20224;-80
2023/09/05 05:22:41;;;;;;;8.30;7.70;;;15.00;99.90;;;;;;5023262;28;20298;-80
2023/09/05 05:25:10;;;;;;;7.93;7.33;;;15.00;99.90;;;;;;5020174;28;20211;-79
2023/09/05 05:27:36;;;;;;;8.60;7.90;;;15.00;99.90;;;;;;5017691;28;20222;-79
2023/09/05 05:30:05;;;;;;;8.37;7.60;;;15.00;99.90;;;;;;5019834;28;20223;-79
2023/09/05 05:32:32;;;;;;;7.80;7.20;;;15.10;99.90;;;;;;5020225;28;20202;-79
2023/09/05 05:34:59;;;;;;;8.33;7.73;;;15.10;99.90;;;;;;5023474;28;20628;-79
2023/09/05 05:37:26;;;;;;;9.10;8.43;;;15.10;99.90;;;;;;5023510;28;20199;-79
2023/09/05 05:39:52;;;;;;;9.27;8.57;;;15.20;99.90;;;;;;5014803;28;20221;-79
2023/09/05 05:42:21;;;;;;;8.70;8.00;;;15.30;99.90;;;;;;5031426;28;20637;-81
2023/09/05 05:44:47;;;;;;;8.20;7.60;;;15.40;99.90;;;;;;5022685;28;20216;-81
2023/09/05 05:47:14;;;;;;;8.90;8.23;;;15.50;99.90;;;;;;5020038;28;20193;-81
2023/09/05 05:49:41;;;;;;;8.47;7.87;;;15.60;99.90;;;;;;5023008;28;20655;-81
2023/09/05 05:52:10;;;;;;;8.20;7.60;;;15.80;99.90;;;;;;5022643;28;20206;-81
2023/09/05 05:54:37;;;;;;;7.93;7.30;;;15.90;99.90;;;;;;5023252;28;20198;-81
2023/09/05 05:57:05;;;;;;;8.50;7.90;;;16.00;99.90;;;;;;5017042;28;20192;-81
2023/09/05 05:59:33;;;;;;;8.20;7.60;;;16.10;99.90;;;;;;5014339;28;20269;-81
2023/09/05 06:02:00;;;;;;;7.93;7.33;;;16.20;99.90;;;;;;5028985;28;20227;-80
2023/09/05 06:04:26;;;;;;;7.50;6.90;;;16.20;99.90;;;;;;5017222;28;20742;-83
2023/09/05 06:06:53;;;;;;;7.97;7.37;;;16.30;99.90;;;;;;5017792;28;20200;-81
2023/09/05 06:09:20;;;;;;;6.07;4.93;;;16.40;99.90;;;;;;5015526;28;20220;-81
2023/09/05 06:11:47;;;;;;;6.90;6.40;;;16.40;99.90;;;;;;5022431;28;20203;-82
2023/09/05 06:14:15;;;;;;;8.47;7.10;;;16.50;99.90;;;;;;5018678;28;20197;-83
2023/09/05 06:16:46;;;;;;;7.80;7.20;;;16.70;99.90;;;;;;5015372;28;20214;-82
2023/09/05 06:19:14;;;;;;;7.57;6.97;;;16.80;99.90;;;;;;5021875;28;20223;-82
2023/09/05 06:21:45;;;;;;;4.47;4.07;;;16.80;99.90;;;;;;5015669;28;20279;-83
2023/09/05 06:24:12;;;;;;;4.57;4.17;;;16.90;99.90;;;;;;5019342;28;20699;-84
2023/09/05 06:26:41;;;;;;;8.90;8.30;;;17.00;99.90;;;;;;5026530;28;20687;-83
2023/09/05 06:29:08;;;;;;;8.40;7.80;;;17.10;99.90;;;;;;5021467;28;20644;-82
2023/09/05 06:31:35;;;;;;;8.53;7.83;;;17.20;99.90;;;;;;5015876;28;20226;-83
2023/09/05 06:34:03;;;;;;;8.53;7.93;;;17.20;99.90;;;;;;5020362;28;20364;-81
2023/09/05 06:36:30;;;;;;;8.20;7.60;;;17.40;99.90;;;;;;5028249;28;20196;-81
2023/09/05 06:38:56;;;;;;;7.83;7.13;;;17.40;99.90;;;;;;5029522;28;20648;-81
2023/09/05 06:41:23;;;;;;;7.87;7.33;;;17.50;99.90;;;;;;5033602;28;20240;-81
2023/09/05 06:43:51;;;;;;;7.77;7.23;;;17.50;99.90;;;;;;5024783;28;20197;-82
2023/09/05 06:46:17;;;;;;;7.50;7.00;;;17.60;99.90;;;;;;5030442;28;20196;-81
2023/09/05 06:48:44;;;;;;;7.80;7.30;;;17.70;99.90;;;;;;5029698;28;20216;-81
2023/09/05 06:51:12;;;;;;;7.60;7.00;;;17.90;99.90;;;;;;5029595;28;20227;-81
2023/09/05 06:53:40;;;;;;;7.27;6.77;;;18.00;99.90;;;;;;5024350;28;20206;-80
2023/09/05 06:56:07;;;;;;;7.33;6.83;;;18.10;99.90;;;;;;5030291;28;20206;-81
2023/09/05 06:58:34;;;;;;;7.50;7.00;;;18.20;99.90;;;;;;5032986;28;20202;-81
2023/09/05 07:01:05;;;;;;;8.50;7.90;;;18.40;99.90;;;;;;5024049;28;20642;-81
2023/09/05 07:03:32;;;;;;;10.13;9.47;;;18.50;99.90;;;;;;5029990;28;20206;-81
2023/09/05 07:05:59;;;;;;;7.50;7.00;;;18.60;99.90;;;;;;5023686;28;20213;-80
2023/09/05 07:08:27;;;;;;;3.47;3.00;;;18.80;99.90;;;;;;5027523;28;20224;-81
2023/09/05 07:10:54;;;;;;;7.50;7.00;;;18.90;99.90;;;;;;5038052;28;20236;-81
2023/09/05 07:13:20;;;;;;;8.80;8.17;;;19.00;99.90;;;;;;5035091;28;20565;-79
2023/09/05 07:15:48;;;;;;;4.63;4.30;;;19.30;99.90;;;;;;5029355;28;20641;-79
2023/09/05 07:18:14;;;;;;;4.13;3.73;;;19.60;99.90;;;;;;5033184;28;20258;-79
2023/09/05 07:20:41;;;;;;;9.40;8.70;;;20.10;99.90;;;;;;5018109;28;20702;-80
2023/09/05 07:23:08;;;;;;;8.60;8.00;;;20.70;99.90;;;;;;5027309;28;20201;-80
2023/09/05 07:25:39;;;;;;;9.73;9.13;;;21.30;99.90;;;;;;5021615;28;20200;-80
2023/09/05 07:28:07;;;;;;;5.90;5.40;;;21.90;99.90;;;;;;5024324;28;20204;-80
2023/09/05 07:30:34;;;;;;;3.43;3.10;;;22.40;99.90;;;;;;5024907;28;20868;-78
2023/09/05 07:33:01;;;;;;;5.70;5.30;;;22.90;99.90;;;;;;5034020;28;20204;-80
2023/09/05 07:35:26;;;;;;;4.10;3.70;;;23.40;99.90;;;;;;5021742;28;20212;-80
2023/09/05 07:37:53;;;;;;;8.53;8.03;;;23.80;99.90;;;;;;5026141;28;20192;-80
2023/09/05 07:40:22;;;;;;;8.20;7.60;;;24.30;99.90;;;;;;5023304;28;20216;-79
2023/09/05 07:42:50;;;;;;;7.90;7.30;;;24.70;99.90;;;;;;5036725;28;20227;-80
2023/09/05 07:45:17;;;;;;;5.47;4.97;;;25.20;99.90;;;;;;5028910;28;20263;-79
2023/09/05 07:47:47;;;;;;;3.50;3.20;;;25.50;99.90;;;;;;5023199;28;20271;-83
2023/09/05 07:50:13;;;;;;;5.00;4.60;;;25.80;99.90;;;;;;5024510;28;20231;-80
2023/09/05 07:52:40;;;;;;;5.00;4.60;;;26.20;99.90;;;;;;5019054;28;20299;-79
2023/09/05 07:55:07;;;;;;;4.33;3.93;;;26.60;99.90;;;;;;5017397;28;20227;-79
2023/09/05 07:57:35;;;;;;;8.07;7.50;;;27.00;99.90;;;;;;5016390;28;20251;-79
2023/09/05 08:00:04;;;;;;;5.93;5.53;;;27.20;99.90;;;;;;5018037;28;20228;-79
2023/09/05 08:02:42;;;;;;;8.50;7.80;;;27.10;99.90;;;;;;5024835;28;20224;-81
2023/09/05 08:05:09;;;;;;;8.07;7.57;;;27.20;99.90;;;;;;5025181;28;20220;-79
2023/09/05 08:07:38;;;;;;;3.53;3.23;;;27.30;99.90;;;;;;5029183;28;20196;-79
2023/09/05 08:10:05;;;;;;;3.50;3.20;;;27.40;99.90;;;;;;5034240;28;20694;-79
2023/09/05 08:12:32;;;;;;;3.67;3.37;;;27.70;99.90;;;;;;5034496;28;20682;-79
2023/09/05 08:14:59;;;;;;;7.30;6.70;;;27.50;99.90;;;;;;5032841;28;20215;-80
2023/09/05 08:17:27;;;;;;;3.30;3.00;;;27.40;99.90;;;;;;5026641;28;20258;-79
2023/09/05 08:19:54;;;;;;;7.30;6.80;;;27.50;99.90;;;;;;5029741;28;20232;-79
2023/09/05 08:22:21;;;;;;;7.80;7.30;;;27.70;99.90;;;;;;5015745;28;20311;-80
2023/09/05 08:24:48;;;;;;;7.20;6.70;;;27.50;99.90;;;;;;5014503;28;20197;-79
2023/09/05 08:27:15;;;;;;;7.80;7.30;;;27.70;99.90;;;;;;5028466;28;20203;-79
2023/09/05 08:29:42;;;;;;;7.60;7.10;;;27.90;99.90;;;;;;5021120;28;20577;-80
2023/09/05 08:32:09;;;;;;;8.00;7.50;;;27.90;99.90;;;;;;5024404;28;20188;-79
2023/09/05 08:34:38;;;;;;;8.40;7.80;;;28.20;99.90;;;;;;5026749;28;20199;-79
2023/09/05 08:37:05;;;;;;;6.77;6.17;;;28.20;99.90;;;;;;5030591;28;20539;-80
2023/09/05 08:39:32;;;;;;;5.40;5.00;;;28.00;99.90;;;;;;5032650;28;20701;-80
2023/09/05 08:42:00;;;;;;;6.93;6.43;;;28.10;99.90;;;;;;5031334;28;20224;-81
2023/09/05 08:44:27;;;;;;;6.50;6.10;;;28.10;99.90;;;;;;5027908;28;20206;-81
2023/09/05 08:46:55;;;;;;;2.80;2.60;;;28.10;99.90;;;;;;5032295;28;20418;-80
2023/09/05 08:49:22;;;;;;;2.90;2.70;;;28.20;99.90;;;;;;5020208;28;20243;-81
2023/09/05 08:51:55;;;;;;;3.63;3.33;;;28.30;99.90;;;;;;5026455;28;20204;-80
2023/09/05 08:54:24;;;;;;;4.27;2.70;;;28.30;99.90;;;;;;5027367;28;20551;-81
2023/09/05 08:56:52;;;;;;;3.40;3.10;;;28.50;99.90;;;;;;5029010;28;20321;-81
2023/09/05 08:59:19;;;;;;;2.87;2.67;;;28.70;99.90;;;;;;5022328;28;20212;-81
2023/09/05 09:01:46;;;;;;;5.00;4.50;;;28.70;99.90;;;;;;5024054;28;20211;-80
2023/09/05 09:04:13;;;;;;;6.13;5.67;;;28.70;99.90;;;;;;5031066;28;20258;-79
2023/09/05 09:06:43;;;;;;;6.30;5.70;;;28.70;99.90;;;;;;5030439;28;20611;-80
2023/09/05 09:09:33;;;;;;;5.10;4.80;;;28.60;99.90;;;;;;5031652;28;20262;-80
2023/09/05 09:12:00;;;;;;;6.60;6.10;;;28.40;99.90;;;;;;5027935;28;20646;-80
2023/09/05 09:14:27;;;;;;;6.00;5.70;;;28.50;99.90;;;;;;5023659;28;20196;-80
2023/09/05 09:16:54;;;;;;;6.93;6.30;;;28.80;99.90;;;;;;5030430;28;20583;-80
2023/09/05 09:19:21;;;;;;;7.90;7.20;;;28.70;99.90;;;;;;5023239;28;20216;-80
2023/09/05 09:21:48;;;;;;;7.80;7.30;;;28.40;99.90;;;;;;5023509;28;20697;-80
2023/09/05 09:24:18;;;;;;;8.70;8.00;;;28.20;99.90;;;;;;5031809;28;20200;-79
2023/09/05 09:26:45;;;;;;;7.27;6.87;;;28.50;99.90;;;;;;5028735;28;20593;-80
2023/09/05 09:29:12;;;;;;;5.87;5.50;;;28.90;99.90;;;;;;5030276;28;20251;-80
2023/09/05 09:31:40;;;;;;;2.90;2.70;;;28.80;99.90;;;;;;5028101;28;20238;-81
2023/09/05 09:34:08;;;;;;;3.57;3.27;;;28.40;99.90;;;;;;5028327;28;20697;-81
2023/09/05 09:36:36;;;;;;;7.30;6.80;;;28.70;99.90;;;;;;5027389;28;20218;-80
2023/09/05 09:39:08;;;;;;;3.10;2.90;;;29.20;99.90;;;;;;5026438;28;20226;-81
2023/09/05 09:41:42;;;;;;;4.20;4.00;;;29.40;99.90;;;;;;5031350;28;20234;-81
2023/09/05 09:44:09;;;;;;;4.90;4.50;;;29.60;99.90;;;;;;5016161;28;20570;-83
2023/09/05 09:46:36;;;;;;;3.63;3.10;;;29.50;99.80;;;;;;5026969;28;20681;-81
2023/09/05 09:49:08;;;;;;;3.83;3.20;;;29.30;99.20;;;;;;5032842;28;20640;-81
2023/09/05 09:51:36;;;;;;;6.93;6.43;;;29.30;99.90;;;;;;5023221;28;20204;-81
2023/09/05 09:54:07;;;;;;;7.60;7.10;;;29.40;99.90;;;;;;5031137;28;20667;-81
2023/09/05 09:56:37;;;;;;;7.10;6.60;;;29.00;99.90;;;;;;5026944;28;20197;-81
2023/09/05 09:59:05;;;;;;;6.90;6.50;;;28.60;99.90;;;;;;5026686;28;20230;-81
2023/09/05 10:01:32;;;;;;;6.60;6.10;;;28.70;99.90;;;;;;5035610;28;20214;-81
2023/09/05 10:03:59;;;;;;;7.20;6.70;;;28.80;99.90;;;;;;5036357;28;20200;-81
2023/09/05 10:06:27;;;;;;;6.50;6.10;;;28.60;99.90;;;;;;5029297;28;20663;-81
2023/09/05 10:08:55;;;;;;;7.10;6.60;;;28.50;99.90;;;;;;5056104;23;20239;-78
2023/09/05 10:11:24;;;;;;;6.87;6.47;;;28.60;99.90;;;;;;5000623;28;20287;-78
2023/09/05 10:13:53;;;;;;;6.20;5.80;;;28.80;99.90;;;;;;5005781;28;20201;-78
2023/09/05 10:16:22;;;;;;;6.03;5.67;;;28.70;99.90;;;;;;5001914;28;20196;-79
2023/09/05 10:18:51;;;;;;;6.30;5.90;;;28.80;99.90;;;;;;5009092;28;20220;-79
2023/09/05 10:21:21;;;;;;;6.13;5.73;;;28.70;99.90;;;;;;5010671;28;20545;-78
2023/09/05 10:23:48;;;;;;;6.37;5.97;;;28.50;99.90;;;;;;5017162;28;20209;-78
2023/09/05 10:26:15;;;;;;;6.10;5.70;;;28.30;99.90;;;;;;5008224;28;20201;-76
2023/09/05 10:28:43;;;;;;;5.70;5.40;;;28.10;99.90;;;;;;5015590;28;20203;-79
2023/09/05 10:31:12;;;;;;;6.50;6.10;;;28.30;99.90;;;;;;5014926;28;20224;-79
2023/09/05 10:33:42;;;;;;;5.60;5.20;;;27.90;99.90;;;;;;5016744;28;20193;-80
2023/09/05 10:36:40;;;;;;;2.70;2.10;;;27.90;99.90;;;;;;5016240;28;20196;-80
2023/09/05 10:39:18;;;;;;;2.43;2.23;;;27.90;99.90;;;;;;5010883;28;20224;-78
2023/09/05 10:41:45;;;;;;;5.70;5.30;;;28.00;99.90;;;;;;5015314;28;20287;-79
2023/09/05 10:44:11;;;;;;;6.20;5.80;;;27.90;99.90;;;;;;5015311;28;20243;-78
2023/09/05 10:46:41;;;;;;;5.90;5.50;;;28.00;99.90;;;;;;5016584;28;20201;-79
2023/09/05 10:49:14;;;;;;;5.80;5.40;;;27.80;99.90;;;;;;5016368;28;20299;-83
2023/09/05 10:52:15;;;;;;;6.03;5.63;;;27.70;99.90;;;;;;5014881;28;20204;-78
2023/09/05 10:54:42;;;;;;;5.40;5.10;;;27.50;99.90;;;;;;5011733;28;20201;-79
2023/09/05 10:57:33;;;;;;;4.87;4.47;;;27.50;99.90;;;;;;5016330;28;20204;-78
2023/09/05 11:00:00;;;;;;;5.80;5.40;;;27.40;99.90;;;;;;5014993;28;20251;-78
2023/09/05 11:02:31;;;;;;;6.53;6.13;;;27.20;99.90;;;;;;5003146;28;20743;-79
2023/09/05 11:04:58;;;;;;;3.83;3.53;;;26.90;99.90;;;;;;5009256;28;20197;-78
2023/09/05 11:07:25;;;;;;;2.27;2.07;;;26.90;99.90;;;;;;5004754;28;20213;-78
2023/09/05 11:09:54;;;;;;;5.80;5.40;;;27.00;99.90;;;;;;5014709;28;20233;-79
2023/09/05 11:12:21;;;;;;;5.57;5.27;;;27.20;99.90;;;;;;5015883;28;20211;-79
2023/09/05 11:14:48;;;;;;;5.90;5.50;;;27.00;99.90;;;;;;5015828;28;20270;-79
2023/09/05 11:17:16;;;;;;;5.50;5.10;;;27.10;99.90;;;;;;5016288;28;20280;-78
2023/09/05 11:19:47;;;;;;;6.00;5.60;;;27.10;99.90;;;;;;5006290;28;20213;-78
2023/09/05 11:22:17;;;;;;;5.80;5.40;;;27.10;99.80;;;;;;5007393;28;20280;-79
2023/09/05 11:24:47;;;;;;;5.70;5.40;;;27.10;99.90;;;;;;5000169;28;20668;-78
2023/09/05 11:27:17;;;;;;;5.80;5.30;;;27.00;99.90;;;;;;5001824;28;20220;-78
2023/09/05 11:29:45;;;;;;;6.00;5.60;;;26.80;99.90;;;;;;4998478;28;20217;-78
2023/09/05 11:32:14;;;;;;;6.30;5.70;;;26.90;99.90;;;;;;4999045;28;20209;-78
2023/09/05 11:34:47;;;;;;;3.10;2.80;;;26.90;99.90;;;;;;5004807;28;20232;-79
2023/09/05 11:37:20;;;;;;;4.97;3.83;;;26.90;99.90;;;;;;5002252;28;20200;-79
2023/09/05 11:39:48;;;;;;;6.87;6.20;;;27.00;99.90;;;;;;5003770;28;20293;-79
2023/09/05 11:42:23;;;;;;;7.70;7.00;;;27.00;99.90;;;;;;5002266;28;20652;-78
2023/09/05 11:44:52;;;;;;;7.00;6.50;;;26.90;99.90;;;;;;5002690;28;20239;-78
2023/09/05 11:47:21;;;;;;;7.53;6.73;;;26.90;99.90;;;;;;5001967;28;20664;-79
2023/09/05 11:49:50;;;;;;;2.53;2.33;;;26.80;99.90;;;;;;4998910;28;20227;-78
2023/09/05 11:52:19;;;;;;;2.73;2.43;;;26.80;99.90;;;;;;5000251;28;20225;-79
2023/09/05 11:54:48;;;;;;;6.10;5.80;;;26.80;99.90;;;;;;4994894;28;20637;-78
2023/09/05 11:57:17;;;;;;;6.57;5.97;;;26.80;99.70;;;;;;4999731;28;20200;-78
2023/09/05 11:59:44;;;;;;;5.50;5.10;;;26.80;99.90;;;;;;5000555;28;20642;-78
2023/09/05 12:02:15;;;;;;;5.40;5.00;;;26.80;99.70;;;;;;4997967;28;20219;-78
2023/09/05 12:04:42;;;;;;;5.63;5.23;;;26.80;99.90;;;;;;5002341;28;20201;-78
2023/09/05 12:07:11;;;;;;;5.87;5.47;;;26.90;99.90;;;;;;5005768;28;20208;-78
2023/09/05 12:09:38;;;;;;;5.67;5.13;;;26.90;99.90;;;;;;5005620;28;20638;-77
2023/09/05 12:12:10;;;;;;;6.00;5.60;;;26.90;99.90;;;;;;4998586;28;20404;-78
2023/09/05 12:14:52;;;;;;;5.70;5.40;;;26.80;99.90;;;;;;4999958;28;20650;-79
2023/09/05 12:17:20;;;;;;;5.90;5.60;;;26.80;99.90;;;;;;5005492;28;20192;-78
2023/09/05 12:19:47;;;;;;;6.50;5.90;;;26.90;99.90;;;;;;4998297;28;20244;-78
2023/09/05 12:22:24;;;;;;;5.80;5.50;;;26.90;99.90;;;;;;5002921;28;20590;-78
2023/09/05 12:25:10;;;;;;;5.87;5.57;;;26.90;99.90;;;;;;5003136;28;20236;-78
2023/09/05 12:27:38;;;;;;;5.93;5.53;;;26.80;99.90;;;;;;4997515;28;20201;-77
2023/09/05 12:30:07;;;;;;;5.60;5.30;;;26.90;99.90;;;;;;5002334;28;20210;-78
2023/09/05 12:32:34;;;;;;;5.70;5.30;;;26.90;99.90;;;;;;5001675;28;20683;-78
2023/09/05 12:35:01;;;;;;;5.80;5.40;;;26.90;99.90;;;;;;5002243;28;20816;-78
2023/09/05 12:37:29;;;;;;;6.20;5.80;;;26.80;99.90;;;;;;5002429;28;20213;-78
2023/09/05 12:39:56;;;;;;;5.90;5.50;;;26.90;99.90;;;;;;5000574;28;20213;-78
2023/09/05 12:42:24;;;;;;;5.87;5.50;;;26.90;99.90;;;;;;4999377;28;20205;-78
2023/09/05 12:44:52;;;;;;;5.73;5.33;;;26.90;99.90;;;;;;4995705;28;20205;-78
2023/09/05 12:47:19;;;;;;;5.60;5.30;;;26.90;99.90;;;;;;5005178;28;20201;-79
2023/09/05 12:49:47;;;;;;;5.80;4.57;;;26.90;99.90;;;;;;5004033;28;20244;-78
2023/09/05 12:52:14;;;;;;;5.30;4.80;;;26.90;99.90;;;;;;4999089;28;20336;-78
2023/09/05 12:54:44;;;;;;;4.53;4.13;;;26.90;99.90;;;;;;4998185;28;20197;-78